Terminal Aerodrome Forecast
Issued by NWS St Louis, MO

Home | Current Version | Previous Version | Text Only | Print | Product List | Glossary On
Versions: 1 2 3 4 5 6 7 8 9 10 11 12 13 14 15 16 17 18 19 20 21 22 23 24 25
000
FTUS43 KLSX 172100 AAD
TAFSTL
TAF AMD
KSTL 172158Z 1722/1824 29015G25KT P6SM -SHSN BKN035
      TEMPO 1722/1723 4SM -SN
     FM180000 28009KT P6SM FEW030
     FM181600 26012G20KT P6SM SCT035=

USA.gov is the U.S. government's official web portal to all federal, state and local government web resources and services.